createdAt,value
2023-05-01T00:07:22.728Z,1022.80
2023-05-01T00:17:27.714Z,1022.79
2023-05-01T00:27:33.365Z,1022.71
2023-05-01T00:37:38.637Z,1022.67
2023-05-01T00:47:43.587Z,1022.61
2023-05-01T00:57:48.820Z,1022.55
2023-05-01T01:07:53.933Z,1022.49
2023-05-01T01:17:59.269Z,1022.46
2023-05-01T01:28:04.574Z,1022.37
2023-05-01T01:38:09.759Z,1022.29
2023-05-01T01:48:14.982Z,1022.25
2023-05-01T01:58:20.384Z,1022.20
2023-05-01T02:08:25.835Z,1022.06
2023-05-01T02:18:31.511Z,1022.02
2023-05-01T02:28:37.118Z,1021.95
2023-05-01T02:38:42.469Z,1021.89
2023-05-01T02:48:48.174Z,1021.78
2023-05-01T02:58:53.348Z,1021.67
2023-05-01T03:08:58.696Z,1021.46
2023-05-01T03:19:04.313Z,1021.37
2023-05-01T03:29:09.374Z,1021.26
2023-05-01T03:39:14.610Z,1021.23
2023-05-01T03:49:19.844Z,1021.17
2023-05-01T03:59:25.389Z,1021.17
2023-05-01T04:09:30.545Z,1021.14
2023-05-01T04:19:35.702Z,1021.13
2023-05-01T04:29:40.854Z,1021.12
2023-05-01T04:39:46.219Z,1021.03
2023-05-01T04:49:51.265Z,1021.00
2023-05-01T04:59:57.269Z,1021.02
2023-05-01T05:10:02.864Z,1020.90
2023-05-01T05:20:08.293Z,1020.84
2023-05-01T05:30:13.143Z,1020.74
2023-05-01T05:40:18.383Z,1020.65
2023-05-01T05:50:23.761Z,1020.60
2023-05-01T06:00:28.739Z,1020.51
2023-05-01T06:10:34.025Z,1020.52
2023-05-01T06:20:39.569Z,1020.50
2023-05-01T06:30:45.152Z,1020.42
2023-05-01T06:40:51.005Z,1020.43
2023-05-01T06:50:56.125Z,1020.31
2023-05-01T07:01:01.427Z,1020.33
2023-05-01T07:11:07.069Z,1020.29
2023-05-01T07:21:12.186Z,1020.21
2023-05-01T07:31:17.605Z,1020.09
2023-05-01T07:41:22.835Z,1019.99
2023-05-01T07:51:27.973Z,1019.90
2023-05-01T08:01:33.139Z,1019.80
2023-05-01T08:11:38.584Z,1019.69
2023-05-01T08:21:43.734Z,1019.60
2023-05-01T08:31:48.929Z,1019.59
2023-05-01T08:41:54.351Z,1019.55
2023-05-01T08:51:59.548Z,1019.35
2023-05-01T09:02:05.016Z,1019.29
2023-05-01T09:12:10.204Z,1019.09
2023-05-01T09:22:15.480Z,1018.91
2023-05-01T09:32:21.257Z,1018.85
2023-05-01T09:42:26.145Z,1018.73
2023-05-01T09:52:31.696Z,1018.51
2023-05-01T10:02:37.400Z,1018.48
2023-05-01T10:12:42.934Z,1018.33
2023-05-01T10:22:48.172Z,1018.24
2023-05-01T10:32:53.583Z,1018.08
2023-05-01T10:42:59.000Z,1017.85
2023-05-01T10:53:04.308Z,1017.72
2023-05-01T11:03:10.024Z,1017.52
2023-05-01T11:13:15.597Z,1017.40
2023-05-01T11:23:20.760Z,1017.21
2023-05-01T11:33:26.069Z,1017.01
2023-05-01T11:43:31.494Z,1016.84
2023-05-01T11:53:36.666Z,1016.77
2023-05-01T12:03:42.123Z,1016.68
2023-05-01T12:13:47.493Z,1016.52
2023-05-01T12:23:52.738Z,1016.42
2023-05-01T12:33:58.302Z,1016.34
2023-05-01T12:44:03.670Z,1016.17
2023-05-01T12:54:09.169Z,1016.02
2023-05-01T13:04:14.556Z,1015.95
2023-05-01T13:14:19.855Z,1015.87
2023-05-01T13:24:25.074Z,1015.83
2023-05-01T13:34:30.276Z,1015.75
2023-05-01T13:44:35.258Z,1015.56
2023-05-01T13:54:40.440Z,1015.53
2023-05-01T14:04:45.810Z,1015.42
2023-05-01T14:14:51.689Z,1015.29
2023-05-01T14:24:57.008Z,1015.14
2023-05-01T14:35:02.814Z,1015.00
2023-05-01T14:45:07.974Z,1014.89
2023-05-01T14:55:13.380Z,1014.85
2023-05-01T15:05:18.940Z,1014.74
2023-05-01T15:15:24.831Z,1014.77
2023-05-01T15:25:30.367Z,1014.65
2023-05-01T15:35:35.584Z,1014.69
2023-05-01T15:45:40.565Z,1014.61
2023-05-01T15:55:46.084Z,1014.52
2023-05-01T16:05:51.430Z,1014.48
2023-05-01T16:15:56.825Z,1014.44
2023-05-01T16:26:02.394Z,1014.43
2023-05-01T16:36:07.643Z,1014.39
2023-05-01T16:46:13.926Z,1014.39
2023-05-01T16:56:19.377Z,1014.37
2023-05-01T17:06:24.689Z,1014.34
2023-05-01T17:16:30.180Z,1014.33
2023-05-01T17:26:35.394Z,1014.30
2023-05-01T17:36:40.985Z,1014.34
2023-05-01T17:46:46.680Z,1014.31
2023-05-01T17:56:53.196Z,1014.28
2023-05-01T18:06:58.339Z,1014.22
2023-05-01T18:17:03.543Z,1014.18
2023-05-01T18:27:09.077Z,1014.16
2023-05-01T18:37:14.121Z,1014.10
2023-05-01T18:47:19.217Z,1014.21
2023-05-01T18:57:24.372Z,1014.18
2023-05-01T19:07:29.615Z,1014.26
2023-05-01T19:17:34.919Z,1014.25
2023-05-01T19:27:39.922Z,1014.26
2023-05-01T19:37:45.169Z,1014.18
2023-05-01T19:47:50.508Z,1014.20
2023-05-01T19:57:56.168Z,1014.17
2023-05-01T20:08:01.498Z,1014.04
2023-05-01T20:18:07.175Z,1014.04
2023-05-01T20:28:13.618Z,1014.06
2023-05-01T20:38:18.853Z,1014.09
2023-05-01T20:48:25.203Z,1014.10
2023-05-01T20:58:30.822Z,1014.13
2023-05-01T21:08:36.430Z,1014.12
2023-05-01T21:18:42.460Z,1014.14
2023-05-01T21:28:47.747Z,1014.22
2023-05-01T21:38:53.002Z,1014.26
2023-05-01T21:48:58.204Z,1014.29
2023-05-01T21:59:03.516Z,1014.34
2023-05-01T22:09:08.675Z,1014.32
2023-05-01T22:19:13.830Z,1014.33
2023-05-01T22:29:19.282Z,1014.34
2023-05-01T22:39:25.742Z,1014.36
2023-05-01T22:49:31.085Z,1014.33
2023-05-01T22:59:36.164Z,1014.42
2023-05-01T23:09:41.404Z,1014.46
2023-05-01T23:19:49.172Z,1014.44
2023-05-01T23:29:54.661Z,1014.43
2023-05-01T23:40:00.133Z,1014.41
2023-05-01T23:50:05.780Z,1014.42
